sensor_id;sensor_type;location;lat;lon;timestamp;temperature;humidity
21489;DHT22;10906;45.194;5.684;2022-09-09T05:03:20;16.80;99.90
21489;DHT22;10906;45.194;5.684;2022-09-09T05:06:10;16.80;99.90
21489;DHT22;10906;45.194;5.684;2022-09-09T05:08:54;16.80;99.90
21489;DHT22;10906;45.194;5.684;2022-09-09T05:11:39;16.70;99.90
21489;DHT22;10906;45.194;5.684;2022-09-09T05:14:24;16.80;99.90
21489;DHT22;10906;45.194;5.684;2022-09-09T05:17:08;16.80;99.90
21489;DHT22;10906;45.194;5.684;2022-09-09T05:19:52;16.70;99.90
21489;DHT22;10906;45.194;5.684;2022-09-09T05:22:36;16.70;99.90
21489;DHT22;10906;45.194;5.684;2022-09-09T05:25:20;16.60;99.90
21489;DHT22;10906;45.194;5.684;2022-09-09T05:28:06;16.60;99.90
21489;DHT22;10906;45.194;5.684;2022-09-09T05:31:03;16.60;99.90
21489;DHT22;10906;45.194;5.684;2022-09-09T05:33:52;16.70;99.90
21489;DHT22;10906;45.194;5.684;2022-09-09T05:36:36;16.80;99.90
21489;DHT22;10906;45.194;5.684;2022-09-09T05:39:20;16.70;99.90
21489;DHT22;10906;45.194;5.684;2022-09-09T05:42:05;16.70;99.90
21489;DHT22;10906;45.194;5.684;2022-09-09T05:44:50;16.60;99.90
21489;DHT22;10906;45.194;5.684;2022-09-09T05:47:35;16.50;99.90
21489;DHT22;10906;45.194;5.684;2022-09-09T05:50:21;16.70;99.90
21489;DHT22;10906;45.194;5.684;2022-09-09T05:53:06;16.70;99.90
21489;DHT22;10906;45.194;5.684;2022-09-09T05:55:50;16.80;99.90
21489;DHT22;10906;45.194;5.684;2022-09-09T05:58:42;16.80;99.90
21489;DHT22;10906;45.194;5.684;2022-09-09T06:01:33;16.80;99.90
21489;DHT22;10906;45.194;5.684;2022-09-09T06:04:18;16.70;99.90
21489;DHT22;10906;45.194;5.684;2022-09-09T06:07:05;16.70;99.90
21489;DHT22;10906;45.194;5.684;2022-09-09T06:09:49;16.70;99.90
21489;DHT22;10906;45.194;5.684;2022-09-09T06:12:35;16.70;99.90
21489;DHT22;10906;45.194;5.684;2022-09-09T06:15:20;16.80;99.90
21489;DHT22;10906;45.194;5.684;2022-09-09T06:18:04;16.80;99.90
21489;DHT22;10906;45.194;5.684;2022-09-09T06:20:55;16.70;99.90
21489;DHT22;10906;45.194;5.684;2022-09-09T06:23:40;16.70;99.90
21489;DHT22;10906;45.194;5.684;2022-09-09T06:26:26;16.80;99.90
21489;DHT22;10906;45.194;5.684;2022-09-09T06:29:11;16.90;99.90
21489;DHT22;10906;45.194;5.684;2022-09-09T06:31:56;16.90;99.90
21489;DHT22;10906;45.194;5.684;2022-09-09T06:34:40;17.00;99.90
21489;DHT22;10906;45.194;5.684;2022-09-09T06:37:25;17.10;99.90
21489;DHT22;10906;45.194;5.684;2022-09-09T06:40:11;17.20;99.90
21489;DHT22;10906;45.194;5.684;2022-09-09T06:42:59;17.20;99.90
21489;DHT22;10906;45.194;5.684;2022-09-09T06:45:43;17.20;99.90
21489;DHT22;10906;45.194;5.684;2022-09-09T06:48:29;17.30;99.90
21489;DHT22;10906;45.194;5.684;2022-09-09T06:51:19;17.40;99.90
21489;DHT22;10906;45.194;5.684;2022-09-09T06:54:05;17.40;99.90
21489;DHT22;10906;45.194;5.684;2022-09-09T06:56:50;17.50;99.90
21489;DHT22;10906;45.194;5.684;2022-09-09T06:59:34;17.60;99.90
21489;DHT22;10906;45.194;5.684;2022-09-09T07:02:18;17.60;99.90
21489;DHT22;10906;45.194;5.684;2022-09-09T07:05:03;17.70;99.90
21489;DHT22;10906;45.194;5.684;2022-09-09T07:07:47;17.70;99.90
21489;DHT22;10906;45.194;5.684;2022-09-09T07:10:32;17.80;99.90
21489;DHT22;10906;45.194;5.684;2022-09-09T07:13:18;17.80;99.90
21489;DHT22;10906;45.194;5.684;2022-09-09T07:16:08;17.90;99.90
21489;DHT22;10906;45.194;5.684;2022-09-09T07:18:53;18.00;99.90
21489;DHT22;10906;45.194;5.684;2022-09-09T07:21:42;18.10;99.90
21489;DHT22;10906;45.194;5.684;2022-09-09T07:24:27;18.20;99.90
21489;DHT22;10906;45.194;5.684;2022-09-09T07:27:14;18.30;99.90
21489;DHT22;10906;45.194;5.684;2022-09-09T07:29:58;18.40;99.90
21489;DHT22;10906;45.194;5.684;2022-09-09T07:32:42;18.50;99.90
21489;DHT22;10906;45.194;5.684;2022-09-09T07:35:26;18.60;99.90
21489;DHT22;10906;45.194;5.684;2022-09-09T07:38:10;18.70;99.90
21489;DHT22;10906;45.194;5.684;2022-09-09T07:41:06;18.90;99.90
21489;DHT22;10906;45.194;5.684;2022-09-09T07:43:51;19.00;99.90
21489;DHT22;10906;45.194;5.684;2022-09-09T07:46:38;19.20;99.90
21489;DHT22;10906;45.194;5.684;2022-09-09T07:49:26;19.40;99.90
21489;DHT22;10906;45.194;5.684;2022-09-09T07:52:10;19.50;99.90
21489;DHT22;10906;45.194;5.684;2022-09-09T07:54:55;19.70;99.90
21489;DHT22;10906;45.194;5.684;2022-09-09T07:57:41;19.80;99.90
21489;DHT22;10906;45.194;5.684;2022-09-09T08:00:25;19.90;99.90
21489;DHT22;10906;45.194;5.684;2022-09-09T08:03:12;20.00;99.90
21489;DHT22;10906;45.194;5.684;2022-09-09T08:06:01;20.30;99.90
21489;DHT22;10906;45.194;5.684;2022-09-09T08:08:50;20.40;99.90
21489;DHT22;10906;45.194;5.684;2022-09-09T08:11:35;20.70;99.90
21489;DHT22;10906;45.194;5.684;2022-09-09T08:14:20;20.70;99.60
21489;DHT22;10906;45.194;5.684;2022-09-09T08:17:04;20.80;99.60
21489;DHT22;10906;45.194;5.684;2022-09-09T08:19:48;21.00;99.70
21489;DHT22;10906;45.194;5.684;2022-09-09T08:22:33;21.20;99.30
21489;DHT22;10906;45.194;5.684;2022-09-09T08:25:18;21.20;98.90
21489;DHT22;10906;45.194;5.684;2022-09-09T08:28:02;21.20;98.80
21489;DHT22;10906;45.194;5.684;2022-09-09T08:30:47;21.30;98.70
21489;DHT22;10906;45.194;5.684;2022-09-09T08:33:32;21.40;98.40
21489;DHT22;10906;45.194;5.684;2022-09-09T08:36:22;21.40;98.40
21489;DHT22;10906;45.194;5.684;2022-09-09T08:39:07;21.50;98.30
21489;DHT22;10906;45.194;5.684;2022-09-09T08:44:52;21.70;98.00
21489;DHT22;10906;45.194;5.684;2022-09-09T08:50:42;21.80;97.70
21489;DHT22;10906;45.194;5.684;2022-09-09T08:53:30;21.90;97.50
21489;DHT22;10906;45.194;5.684;2022-09-09T08:56:21;22.10;97.20
21489;DHT22;10906;45.194;5.684;2022-09-09T08:59:11;22.20;96.50
21489;DHT22;10906;45.194;5.684;2022-09-09T09:02:07;22.40;96.00
21489;DHT22;10906;45.194;5.684;2022-09-09T09:05:23;22.60;95.30
21489;DHT22;10906;45.194;5.684;2022-09-09T09:11:36;22.90;92.20
21489;DHT22;10906;45.194;5.684;2022-09-09T09:14:25;23.20;92.40
21489;DHT22;10906;45.194;5.684;2022-09-09T09:17:13;23.40;92.30
21489;DHT22;10906;45.194;5.684;2022-09-09T09:19:59;23.60;92.10
21489;DHT22;10906;45.194;5.684;2022-09-09T09:22:51;23.80;91.40
21489;DHT22;10906;45.194;5.684;2022-09-09T09:25:39;23.90;90.00
21489;DHT22;10906;45.194;5.684;2022-09-09T09:28:31;24.00;90.10
21489;DHT22;10906;45.194;5.684;2022-09-09T09:31:18;24.00;86.90
21489;DHT22;10906;45.194;5.684;2022-09-09T09:34:04;24.10;88.30
21489;DHT22;10906;45.194;5.684;2022-09-09T09:36:59;24.30;87.50
21489;DHT22;10906;45.194;5.684;2022-09-09T09:39:47;24.30;84.90
21489;DHT22;10906;45.194;5.684;2022-09-09T09:42:32;24.30;84.40
21489;DHT22;10906;45.194;5.684;2022-09-09T09:45:41;24.40;83.80
21489;DHT22;10906;45.194;5.684;2022-09-09T09:48:27;24.50;81.00
21489;DHT22;10906;45.194;5.684;2022-09-09T09:51:14;24.70;82.60
21489;DHT22;10906;45.194;5.684;2022-09-09T09:57:10;24.60;79.70
21489;DHT22;10906;45.194;5.684;2022-09-09T10:03:01;24.70;76.20
21489;DHT22;10906;45.194;5.684;2022-09-09T10:05:46;24.70;79.30
21489;DHT22;10906;45.194;5.684;2022-09-09T10:08:34;24.80;79.10
21489;DHT22;10906;45.194;5.684;2022-09-09T10:12:02;25.10;78.30
21489;DHT22;10906;45.194;5.684;2022-09-09T10:14:51;25.10;75.80
21489;DHT22;10906;45.194;5.684;2022-09-09T10:26:40;25.40;76.00
21489;DHT22;10906;45.194;5.684;2022-09-09T10:33:22;25.60;70.60
21489;DHT22;10906;45.194;5.684;2022-09-09T10:39:04;25.60;73.80
21489;DHT22;10906;45.194;5.684;2022-09-09T10:44:55;25.50;71.20
21489;DHT22;10906;45.194;5.684;2022-09-09T10:48:02;25.60;74.10
21489;DHT22;10906;45.194;5.684;2022-09-09T10:57:20;26.10;72.70
21489;DHT22;10906;45.194;5.684;2022-09-09T11:03:03;26.20;70.50
21489;DHT22;10906;45.194;5.684;2022-09-09T11:08:41;26.30;70.40
21489;DHT22;10906;45.194;5.684;2022-09-09T11:11:32;26.50;70.40
21489;DHT22;10906;45.194;5.684;2022-09-09T11:17:54;26.20;67.30
21489;DHT22;10906;45.194;5.684;2022-09-09T11:20:36;25.80;65.50
21489;DHT22;10906;45.194;5.684;2022-09-09T11:23:27;25.60;66.50
21489;DHT22;10906;45.194;5.684;2022-09-09T11:26:21;25.70;69.30
21489;DHT22;10906;45.194;5.684;2022-09-09T11:29:36;26.00;69.40
21489;DHT22;10906;45.194;5.684;2022-09-09T11:38:34;25.70;67.40
21489;DHT22;10906;45.194;5.684;2022-09-09T11:41:21;25.40;69.10
21489;DHT22;10906;45.194;5.684;2022-09-09T11:44:13;25.40;69.50
21489;DHT22;10906;45.194;5.684;2022-09-09T11:47:01;25.60;68.40
21489;DHT22;10906;45.194;5.684;2022-09-09T11:49:45;25.70;68.20
21489;DHT22;10906;45.194;5.684;2022-09-09T11:52:41;25.70;68.40
21489;DHT22;10906;45.194;5.684;2022-09-09T11:55:33;25.80;67.50
21489;DHT22;10906;45.194;5.684;2022-09-09T11:58:22;25.90;68.00
21489;DHT22;10906;45.194;5.684;2022-09-09T12:01:30;26.10;67.70
21489;DHT22;10906;45.194;5.684;2022-09-09T12:08:09;26.40;66.60
21489;DHT22;10906;45.194;5.684;2022-09-09T12:10:35;26.50;64.50
21489;DHT22;10906;45.194;5.684;2022-09-09T12:13:25;26.60;66.50
21489;DHT22;10906;45.194;5.684;2022-09-09T12:16:29;26.80;65.90
21489;DHT22;10906;45.194;5.684;2022-09-09T12:19:19;26.60;63.00
21489;DHT22;10906;45.194;5.684;2022-09-09T12:22:26;26.60;63.90
21489;DHT22;10906;45.194;5.684;2022-09-09T12:28:17;26.60;62.90
21489;DHT22;10906;45.194;5.684;2022-09-09T12:31:25;26.70;62.20
21489;DHT22;10906;45.194;5.684;2022-09-09T12:34:33;26.70;60.50
21489;DHT22;10906;45.194;5.684;2022-09-09T12:37:36;26.70;59.90
21489;DHT22;10906;45.194;5.684;2022-09-09T12:40:26;26.70;60.50
21489;DHT22;10906;45.194;5.684;2022-09-09T12:43:19;26.60;60.40
21489;DHT22;10906;45.194;5.684;2022-09-09T12:46:07;26.50;60.40
21489;DHT22;10906;45.194;5.684;2022-09-09T12:48:52;26.50;56.80
21489;DHT22;10906;45.194;5.684;2022-09-09T12:51:37;26.30;60.20
21489;DHT22;10906;45.194;5.684;2022-09-09T12:54:22;26.20;61.00
21489;DHT22;10906;45.194;5.684;2022-09-09T12:57:11;26.20;60.80
21489;DHT22;10906;45.194;5.684;2022-09-09T13:00:37;26.30;58.60
21489;DHT22;10906;45.194;5.684;2022-09-09T13:03:20;26.10;58.70
21489;DHT22;10906;45.194;5.684;2022-09-09T13:06:13;26.10;59.50
21489;DHT22;10906;45.194;5.684;2022-09-09T13:09:00;26.00;58.50
21489;DHT22;10906;45.194;5.684;2022-09-09T13:11:48;25.90;58.10
21489;DHT22;10906;45.194;5.684;2022-09-09T13:14:35;25.90;59.20
21489;DHT22;10906;45.194;5.684;2022-09-09T13:17:24;25.90;59.90
21489;DHT22;10906;45.194;5.684;2022-09-09T13:20:20;26.00;59.20
21489;DHT22;10906;45.194;5.684;2022-09-09T13:23:04;26.00;58.00
21489;DHT22;10906;45.194;5.684;2022-09-09T13:25:57;26.00;58.80
21489;DHT22;10906;45.194;5.684;2022-09-09T13:28:42;26.00;58.40
21489;DHT22;10906;45.194;5.684;2022-09-09T13:31:33;26.00;59.20
21489;DHT22;10906;45.194;5.684;2022-09-09T13:34:32;26.10;57.80
21489;DHT22;10906;45.194;5.684;2022-09-09T13:40:20;26.10;57.80
21489;DHT22;10906;45.194;5.684;2022-09-09T13:43:14;26.10;57.70
21489;DHT22;10906;45.194;5.684;2022-09-09T13:46:03;26.00;56.50
21489;DHT22;10906;45.194;5.684;2022-09-09T13:48:56;25.90;57.50
21489;DHT22;10906;45.194;5.684;2022-09-09T13:51:46;25.90;56.90
21489;DHT22;10906;45.194;5.684;2022-09-09T13:54:31;25.80;57.40
21489;DHT22;10906;45.194;5.684;2022-09-09T13:57:33;25.70;57.60
21489;DHT22;10906;45.194;5.684;2022-09-09T14:00:17;25.70;56.80
21489;DHT22;10906;45.194;5.684;2022-09-09T14:03:02;25.70;56.30
21489;DHT22;10906;45.194;5.684;2022-09-09T14:05:47;25.80;57.60
21489;DHT22;10906;45.194;5.684;2022-09-09T14:08:32;25.90;57.20
21489;DHT22;10906;45.194;5.684;2022-09-09T14:11:21;26.10;57.10
21489;DHT22;10906;45.194;5.684;2022-09-09T14:14:06;26.40;55.80
21489;DHT22;10906;45.194;5.684;2022-09-09T14:16:50;26.80;56.50
21489;DHT22;10906;45.194;5.684;2022-09-09T14:19:34;27.10;56.20
21489;DHT22;10906;45.194;5.684;2022-09-09T14:22:19;27.40;55.50
21489;DHT22;10906;45.194;5.684;2022-09-09T14:25:04;27.60;55.40
21489;DHT22;10906;45.194;5.684;2022-09-09T14:27:49;27.60;54.40
21489;DHT22;10906;45.194;5.684;2022-09-09T14:30:36;27.70;54.40
21489;DHT22;10906;45.194;5.684;2022-09-09T14:33:20;27.60;52.00
21489;DHT22;10906;45.194;5.684;2022-09-09T14:36:05;27.40;51.40
21489;DHT22;10906;45.194;5.684;2022-09-09T14:38:50;27.00;53.00
21489;DHT22;10906;45.194;5.684;2022-09-09T14:41:34;27.60;52.40
21489;DHT22;10906;45.194;5.684;2022-09-09T14:44:19;28.20;50.90
21489;DHT22;10906;45.194;5.684;2022-09-09T14:47:05;28.50;51.60
21489;DHT22;10906;45.194;5.684;2022-09-09T14:49:49;28.00;50.00
21489;DHT22;10906;45.194;5.684;2022-09-09T14:52:33;27.80;51.00
21489;DHT22;10906;45.194;5.684;2022-09-09T14:55:17;28.20;49.80
21489;DHT22;10906;45.194;5.684;2022-09-09T14:58:03;29.30;50.60
21489;DHT22;10906;45.194;5.684;2022-09-09T15:00:48;30.10;48.50
21489;DHT22;10906;45.194;5.684;2022-09-09T15:03:33;30.40;47.20
21489;DHT22;10906;45.194;5.684;2022-09-09T15:06:18;29.40;46.60
21489;DHT22;10906;45.194;5.684;2022-09-09T15:09:03;28.40;47.00
21489;DHT22;10906;45.194;5.684;2022-09-09T15:11:47;27.60;47.50
21489;DHT22;10906;45.194;5.684;2022-09-09T15:14:31;28.20;48.20
21489;DHT22;10906;45.194;5.684;2022-09-09T15:17:16;29.10;48.30
21489;DHT22;10906;45.194;5.684;2022-09-09T15:20:02;29.80;48.30
21489;DHT22;10906;45.194;5.684;2022-09-09T15:22:47;30.10;47.50
21489;DHT22;10906;45.194;5.684;2022-09-09T15:25:31;30.20;46.50
21489;DHT22;10906;45.194;5.684;2022-09-09T15:28:16;30.00;46.40
21489;DHT22;10906;45.194;5.684;2022-09-09T15:31:05;29.60;45.50
21489;DHT22;10906;45.194;5.684;2022-09-09T15:33:53;30.00;46.60
21489;DHT22;10906;45.194;5.684;2022-09-09T15:36:41;30.10;44.60
21489;DHT22;10906;45.194;5.684;2022-09-09T15:39:25;30.30;44.90
21489;DHT22;10906;45.194;5.684;2022-09-09T15:42:10;30.50;45.50
21489;DHT22;10906;45.194;5.684;2022-09-09T15:44:55;30.50;44.60
21489;DHT22;10906;45.194;5.684;2022-09-09T15:47:39;30.50;44.60
21489;DHT22;10906;45.194;5.684;2022-09-09T15:50:24;30.70;46.50
21489;DHT22;10906;45.194;5.684;2022-09-09T15:53:08;30.80;44.70
21489;DHT22;10906;45.194;5.684;2022-09-09T15:55:55;30.40;44.50
21489;DHT22;10906;45.194;5.684;2022-09-09T15:58:39;30.10;44.40
21489;DHT22;10906;45.194;5.684;2022-09-09T16:01:25;29.80;44.70
21489;DHT22;10906;45.194;5.684;2022-09-09T16:04:10;29.40;45.20
21489;DHT22;10906;45.194;5.684;2022-09-09T16:07:05;29.30;46.50
21489;DHT22;10906;45.194;5.684;2022-09-09T16:09:49;29.20;45.80
21489;DHT22;10906;45.194;5.684;2022-09-09T16:12:37;29.30;46.30
21489;DHT22;10906;45.194;5.684;2022-09-09T16:15:22;29.30;45.60
21489;DHT22;10906;45.194;5.684;2022-09-09T16:18:07;28.80;45.70
21489;DHT22;10906;45.194;5.684;2022-09-09T16:20:55;28.30;46.20
21489;DHT22;10906;45.194;5.684;2022-09-09T16:23:39;27.90;48.70
21489;DHT22;10906;45.194;5.684;2022-09-09T16:26:24;27.40;48.80
21489;DHT22;10906;45.194;5.684;2022-09-09T16:29:09;27.10;49.70
21489;DHT22;10906;45.194;5.684;2022-09-09T16:31:54;26.80;49.40
21489;DHT22;10906;45.194;5.684;2022-09-09T16:34:38;26.50;50.00
21489;DHT22;10906;45.194;5.684;2022-09-09T16:37:24;26.30;50.60
21489;DHT22;10906;45.194;5.684;2022-09-09T16:40:08;26.00;50.40
21489;DHT22;10906;45.194;5.684;2022-09-09T16:42:53;25.80;51.40
21489;DHT22;10906;45.194;5.684;2022-09-09T16:45:44;25.60;52.70
21489;DHT22;10906;45.194;5.684;2022-09-09T16:48:32;25.50;54.10
21489;DHT22;10906;45.194;5.684;2022-09-09T16:51:22;25.20;55.40
21489;DHT22;10906;45.194;5.684;2022-09-09T16:54:10;25.00;54.50
21489;DHT22;10906;45.194;5.684;2022-09-09T16:56:55;24.80;53.90
21489;DHT22;10906;45.194;5.684;2022-09-09T16:59:39;24.70;54.40
21489;DHT22;10906;45.194;5.684;2022-09-09T17:02:23;24.60;54.80
21489;DHT22;10906;45.194;5.684;2022-09-09T17:05:08;24.50;55.30
21489;DHT22;10906;45.194;5.684;2022-09-09T17:07:53;24.40;55.80
21489;DHT22;10906;45.194;5.684;2022-09-09T17:10:41;24.40;56.70
21489;DHT22;10906;45.194;5.684;2022-09-09T17:13:26;24.20;56.50
21489;DHT22;10906;45.194;5.684;2022-09-09T17:16:11;24.10;58.70
21489;DHT22;10906;45.194;5.684;2022-09-09T17:18:56;24.00;57.80
21489;DHT22;10906;45.194;5.684;2022-09-09T17:21:41;24.00;58.40
21489;DHT22;10906;45.194;5.684;2022-09-09T17:24:28;23.90;58.00
21489;DHT22;10906;45.194;5.684;2022-09-09T17:27:13;23.90;59.00
21489;DHT22;10906;45.194;5.684;2022-09-09T17:30:01;23.80;60.30
21489;DHT22;10906;45.194;5.684;2022-09-09T17:32:46;23.50;60.80
21489;DHT22;10906;45.194;5.684;2022-09-09T17:35:31;23.40;61.40
21489;DHT22;10906;45.194;5.684;2022-09-09T17:38:15;23.40;61.90
21489;DHT22;10906;45.194;5.684;2022-09-09T17:41:05;23.40;61.80
21489;DHT22;10906;45.194;5.684;2022-09-09T17:43:51;23.30;61.00
21489;DHT22;10906;45.194;5.684;2022-09-09T17:46:37;23.30;61.20
21489;DHT22;10906;45.194;5.684;2022-09-09T17:49:25;23.20;61.10
21489;DHT22;10906;45.194;5.684;2022-09-09T17:52:09;23.20;60.10
21489;DHT22;10906;45.194;5.684;2022-09-09T17:54:54;23.10;60.20
21489;DHT22;10906;45.194;5.684;2022-09-09T17:57:40;23.10;62.00
21489;DHT22;10906;45.194;5.684;2022-09-09T18:00:24;22.90;60.20
21489;DHT22;10906;45.194;5.684;2022-09-09T18:03:09;22.90;60.50
21489;DHT22;10906;45.194;5.684;2022-09-09T18:05:59;22.90;60.70
21489;DHT22;10906;45.194;5.684;2022-09-09T18:08:52;22.80;60.20
21489;DHT22;10906;45.194;5.684;2022-09-09T18:11:42;22.70;62.40
21489;DHT22;10906;45.194;5.684;2022-09-09T18:14:30;22.70;63.60
21489;DHT22;10906;45.194;5.684;2022-09-09T18:17:15;22.50;64.40
21489;DHT22;10906;45.194;5.684;2022-09-09T18:20:00;22.40;65.40
21489;DHT22;10906;45.194;5.684;2022-09-09T18:22:47;22.30;64.50
21489;DHT22;10906;45.194;5.684;2022-09-09T18:25:37;22.40;66.60
21489;DHT22;10906;45.194;5.684;2022-09-09T18:28:22;22.30;67.60
21489;DHT22;10906;45.194;5.684;2022-09-09T18:31:07;22.20;68.00
21489;DHT22;10906;45.194;5.684;2022-09-09T18:33:54;21.20;66.50
21489;DHT22;10906;45.194;5.684;2022-09-09T18:36:45;22.10;67.20
21489;DHT22;10906;45.194;5.684;2022-09-09T18:39:29;22.20;68.40
21489;DHT22;10906;45.194;5.684;2022-09-09T18:42:14;22.10;68.40
21489;DHT22;10906;45.194;5.684;2022-09-09T18:44:59;22.10;69.20
21489;DHT22;10906;45.194;5.684;2022-09-09T18:47:43;22.00;67.50
21489;DHT22;10906;45.194;5.684;2022-09-09T18:50:28;22.00;68.10
21489;DHT22;10906;45.194;5.684;2022-09-09T18:53:13;22.00;67.50
21489;DHT22;10906;45.194;5.684;2022-09-09T18:56:00;22.00;68.30
21489;DHT22;10906;45.194;5.684;2022-09-09T18:58:45;22.00;66.80
21489;DHT22;10906;45.194;5.684;2022-09-09T19:01:32;22.00;66.30
21489;DHT22;10906;45.194;5.684;2022-09-09T19:04:20;22.00;68.80
21489;DHT22;10906;45.194;5.684;2022-09-09T19:07:05;21.90;68.70
21489;DHT22;10906;45.194;5.684;2022-09-09T19:09:49;21.80;70.60
21489;DHT22;10906;45.194;5.684;2022-09-09T19:12:33;21.70;70.70
21489;DHT22;10906;45.194;5.684;2022-09-09T19:15:17;21.60;71.30
21489;DHT22;10906;45.194;5.684;2022-09-09T19:18:02;21.50;72.10
21489;DHT22;10906;45.194;5.684;2022-09-09T19:20:46;21.40;70.50
21489;DHT22;10906;45.194;5.684;2022-09-09T19:23:31;21.40;71.20
21489;DHT22;10906;45.194;5.684;2022-09-09T19:26:16;21.30;71.30
21489;DHT22;10906;45.194;5.684;2022-09-09T19:29:00;21.20;71.00
21489;DHT22;10906;45.194;5.684;2022-09-09T19:31:47;21.30;70.80
21489;DHT22;10906;45.194;5.684;2022-09-09T19:34:32;21.30;71.80
21489;DHT22;10906;45.194;5.684;2022-09-09T19:37:16;21.30;71.00
21489;DHT22;10906;45.194;5.684;2022-09-09T19:40:01;21.20;69.80
21489;DHT22;10906;45.194;5.684;2022-09-09T19:42:46;21.20;70.60
21489;DHT22;10906;45.194;5.684;2022-09-09T19:45:31;21.10;71.00
21489;DHT22;10906;45.194;5.684;2022-09-09T19:48:16;21.10;72.00
21489;DHT22;10906;45.194;5.684;2022-09-09T19:51:09;21.00;72.70
21489;DHT22;10906;45.194;5.684;2022-09-09T19:53:58;21.10;72.00
21489;DHT22;10906;45.194;5.684;2022-09-09T19:56:43;21.00;72.20
21489;DHT22;10906;45.194;5.684;2022-09-09T19:59:28;21.00;73.30
21489;DHT22;10906;45.194;5.684;2022-09-09T20:02:12;21.00;72.30
21489;DHT22;10906;45.194;5.684;2022-09-09T20:04:58;21.10;73.10
21489;DHT22;10906;45.194;5.684;2022-09-09T20:07:42;21.10;72.70
21489;DHT22;10906;45.194;5.684;2022-09-09T20:10:31;21.00;71.70
21489;DHT22;10906;45.194;5.684;2022-09-09T20:13:16;21.00;71.60
21489;DHT22;10906;45.194;5.684;2022-09-09T20:16:06;20.90;71.30
21489;DHT22;10906;45.194;5.684;2022-09-09T20:18:57;20.90;72.30
21489;DHT22;10906;45.194;5.684;2022-09-09T20:21:43;20.90;72.40
21489;DHT22;10906;45.194;5.684;2022-09-09T20:24:28;20.80;72.90
21489;DHT22;10906;45.194;5.684;2022-09-09T20:27:12;20.70;73.50
21489;DHT22;10906;45.194;5.684;2022-09-09T20:29:57;20.60;73.90
21489;DHT22;10906;45.194;5.684;2022-09-09T20:32:41;20.60;74.10
21489;DHT22;10906;45.194;5.684;2022-09-09T20:35:27;20.50;74.20
21489;DHT22;10906;45.194;5.684;2022-09-09T20:38:11;20.50;74.50
21489;DHT22;10906;45.194;5.684;2022-09-09T20:40:55;20.50;74.30
21489;DHT22;10906;45.194;5.684;2022-09-09T20:43:45;20.60;74.20
21489;DHT22;10906;45.194;5.684;2022-09-09T20:46:38;20.60;74.10
21489;DHT22;10906;45.194;5.684;2022-09-09T20:49:22;20.60;74.20
21489;DHT22;10906;45.194;5.684;2022-09-09T20:52:07;20.60;74.30
21489;DHT22;10906;45.194;5.684;2022-09-09T20:54:54;20.70;74.80
21489;DHT22;10906;45.194;5.684;2022-09-09T20:57:39;20.70;74.80
21489;DHT22;10906;45.194;5.684;2022-09-09T21:00:23;20.60;74.90
21489;DHT22;10906;45.194;5.684;2022-09-09T21:03:08;20.60;74.80
21489;DHT22;10906;45.194;5.684;2022-09-09T21:05:52;20.60;75.10
21489;DHT22;10906;45.194;5.684;2022-09-09T21:08:37;20.60;75.10
21489;DHT22;10906;45.194;5.684;2022-09-09T21:11:21;20.60;75.00
21489;DHT22;10906;45.194;5.684;2022-09-09T21:14:07;20.60;75.40
21489;DHT22;10906;45.194;5.684;2022-09-09T21:16:52;20.70;75.90
21489;DHT22;10906;45.194;5.684;2022-09-09T21:19:37;20.70;76.10
21489;DHT22;10906;45.194;5.684;2022-09-09T21:22:22;20.60;75.50
21489;DHT22;10906;45.194;5.684;2022-09-09T21:25:07;20.60;75.80
21489;DHT22;10906;45.194;5.684;2022-09-09T21:27:51;20.50;75.60
21489;DHT22;10906;45.194;5.684;2022-09-09T21:30:37;20.50;76.10
21489;DHT22;10906;45.194;5.684;2022-09-09T21:33:26;20.40;76.30
21489;DHT22;10906;45.194;5.684;2022-09-09T21:36:12;20.40;76.60
21489;DHT22;10906;45.194;5.684;2022-09-09T21:38:56;20.40;76.70
21489;DHT22;10906;45.194;5.684;2022-09-09T21:41:41;20.30;77.40
21489;DHT22;10906;45.194;5.684;2022-09-09T21:44:26;20.30;77.40
21489;DHT22;10906;45.194;5.684;2022-09-09T21:47:10;20.20;77.60
21489;DHT22;10906;45.194;5.684;2022-09-09T21:49:55;20.20;78.00
21489;DHT22;10906;45.194;5.684;2022-09-09T21:52:39;20.20;78.60
21489;DHT22;10906;45.194;5.684;2022-09-09T21:55:24;20.10;78.50
21489;DHT22;10906;45.194;5.684;2022-09-09T21:58:09;20.10;78.70
